sensor_id;sensor_type;location;lat;lon;timestamp;temperature;humidity
32476;DHT22;18929;48.008;10.882;2023-03-13T00:00:45;8.60;99.90
32476;DHT22;18929;48.008;10.882;2023-03-13T00:03:12;8.60;99.90
32476;DHT22;18929;48.008;10.882;2023-03-13T00:05:39;8.20;99.90
32476;DHT22;18929;48.008;10.882;2023-03-13T00:08:06;8.00;99.90
32476;DHT22;18929;48.008;10.882;2023-03-13T00:10:36;8.20;99.90
32476;DHT22;18929;48.008;10.882;2023-03-13T00:13:03;8.50;99.90
32476;DHT22;18929;48.008;10.882;2023-03-13T00:15:30;8.50;99.90
32476;DHT22;18929;48.008;10.882;2023-03-13T00:17:57;8.70;99.90
32476;DHT22;18929;48.008;10.882;2023-03-13T00:20:24;8.70;99.90
32476;DHT22;18929;48.008;10.882;2023-03-13T00:22:51;8.70;99.90
32476;DHT22;18929;48.008;10.882;2023-03-13T00:25:17;7.70;99.90
32476;DHT22;18929;48.008;10.882;2023-03-13T00:27:46;8.10;99.90
32476;DHT22;18929;48.008;10.882;2023-03-13T00:30:12;8.20;99.90
32476;DHT22;18929;48.008;10.882;2023-03-13T00:32:40;8.00;99.90
32476;DHT22;18929;48.008;10.882;2023-03-13T00:35:07;8.30;99.90
32476;DHT22;18929;48.008;10.882;2023-03-13T00:37:34;8.40;99.90
32476;DHT22;18929;48.008;10.882;2023-03-13T00:40:00;8.50;99.90
32476;DHT22;18929;48.008;10.882;2023-03-13T00:42:28;8.50;99.90
32476;DHT22;18929;48.008;10.882;2023-03-13T00:44:56;8.30;99.90
32476;DHT22;18929;48.008;10.882;2023-03-13T00:47:23;8.40;99.90
32476;DHT22;18929;48.008;10.882;2023-03-13T00:49:50;8.40;99.90
32476;DHT22;18929;48.008;10.882;2023-03-13T00:52:17;7.90;99.90
32476;DHT22;18929;48.008;10.882;2023-03-13T00:54:44;8.10;99.90
32476;DHT22;18929;48.008;10.882;2023-03-13T00:57:10;8.40;99.90
32476;DHT22;18929;48.008;10.882;2023-03-13T00:59:37;8.40;99.90
32476;DHT22;18929;48.008;10.882;2023-03-13T01:02:05;7.80;99.90
32476;DHT22;18929;48.008;10.882;2023-03-13T01:04:32;7.90;99.90
32476;DHT22;18929;48.008;10.882;2023-03-13T01:06:59;8.10;99.90
32476;DHT22;18929;48.008;10.882;2023-03-13T01:09:26;8.10;99.90
32476;DHT22;18929;48.008;10.882;2023-03-13T01:11:53;8.10;99.90
32476;DHT22;18929;48.008;10.882;2023-03-13T01:14:20;8.10;99.90
32476;DHT22;18929;48.008;10.882;2023-03-13T01:16:46;8.20;99.90
32476;DHT22;18929;48.008;10.882;2023-03-13T01:19:15;8.20;99.90
32476;DHT22;18929;48.008;10.882;2023-03-13T01:21:42;8.20;99.90
32476;DHT22;18929;48.008;10.882;2023-03-13T01:24:09;8.20;99.90
32476;DHT22;18929;48.008;10.882;2023-03-13T01:26:37;8.30;99.90
32476;DHT22;18929;48.008;10.882;2023-03-13T01:29:03;8.30;99.90
32476;DHT22;18929;48.008;10.882;2023-03-13T01:31:31;8.20;99.90
32476;DHT22;18929;48.008;10.882;2023-03-13T01:33:59;8.10;99.90
32476;DHT22;18929;48.008;10.882;2023-03-13T01:36:27;8.30;99.90
32476;DHT22;18929;48.008;10.882;2023-03-13T01:38:55;8.30;99.90
32476;DHT22;18929;48.008;10.882;2023-03-13T01:41:22;8.30;99.90
32476;DHT22;18929;48.008;10.882;2023-03-13T01:43:50;8.20;99.90
32476;DHT22;18929;48.008;10.882;2023-03-13T01:46:17;8.30;99.90
32476;DHT22;18929;48.008;10.882;2023-03-13T01:48:46;8.10;99.90
32476;DHT22;18929;48.008;10.882;2023-03-13T01:51:16;8.00;99.90
32476;DHT22;18929;48.008;10.882;2023-03-13T01:53:45;8.10;99.90
32476;DHT22;18929;48.008;10.882;2023-03-13T01:56:14;8.10;99.90
32476;DHT22;18929;48.008;10.882;2023-03-13T01:58:42;8.00;99.90
32476;DHT22;18929;48.008;10.882;2023-03-13T02:01:10;8.00;99.90
32476;DHT22;18929;48.008;10.882;2023-03-13T02:03:37;8.10;99.90
32476;DHT22;18929;48.008;10.882;2023-03-13T02:06:04;8.00;99.90
32476;DHT22;18929;48.008;10.882;2023-03-13T02:08:34;7.90;99.90
32476;DHT22;18929;48.008;10.882;2023-03-13T02:11:05;7.80;99.90
32476;DHT22;18929;48.008;10.882;2023-03-13T02:13:33;7.10;99.90
32476;DHT22;18929;48.008;10.882;2023-03-13T02:16:00;7.30;99.90
32476;DHT22;18929;48.008;10.882;2023-03-13T02:18:27;7.60;99.90
32476;DHT22;18929;48.008;10.882;2023-03-13T02:20:55;7.50;99.90
32476;DHT22;18929;48.008;10.882;2023-03-13T02:23:28;7.30;99.90
32476;DHT22;18929;48.008;10.882;2023-03-13T02:26:00;7.00;99.90
32476;DHT22;18929;48.008;10.882;2023-03-13T02:28:27;7.00;99.90
32476;DHT22;18929;48.008;10.882;2023-03-13T02:30:57;7.10;99.90
32476;DHT22;18929;48.008;10.882;2023-03-13T02:33:25;7.30;99.90
32476;DHT22;18929;48.008;10.882;2023-03-13T02:35:53;7.00;99.90
32476;DHT22;18929;48.008;10.882;2023-03-13T02:38:22;6.90;99.90
32476;DHT22;18929;48.008;10.882;2023-03-13T02:40:49;7.00;99.90
32476;DHT22;18929;48.008;10.882;2023-03-13T02:43:20;7.10;99.90
32476;DHT22;18929;48.008;10.882;2023-03-13T02:45:59;7.30;99.90
32476;DHT22;18929;48.008;10.882;2023-03-13T02:48:30;7.50;99.90
32476;DHT22;18929;48.008;10.882;2023-03-13T02:50:57;7.70;99.90
32476;DHT22;18929;48.008;10.882;2023-03-13T02:53:24;7.70;99.90
32476;DHT22;18929;48.008;10.882;2023-03-13T02:55:52;7.70;99.90
32476;DHT22;18929;48.008;10.882;2023-03-13T02:58:20;7.90;99.90
32476;DHT22;18929;48.008;10.882;2023-03-13T03:00:48;8.10;99.90
32476;DHT22;18929;48.008;10.882;2023-03-13T03:03:15;8.00;99.90
32476;DHT22;18929;48.008;10.882;2023-03-13T03:05:42;8.10;99.90
32476;DHT22;18929;48.008;10.882;2023-03-13T03:08:09;8.20;99.90
32476;DHT22;18929;48.008;10.882;2023-03-13T03:10:35;8.20;99.90
32476;DHT22;18929;48.008;10.882;2023-03-13T03:13:02;7.90;99.90
32476;DHT22;18929;48.008;10.882;2023-03-13T03:15:30;7.70;99.90
32476;DHT22;18929;48.008;10.882;2023-03-13T03:17:57;8.00;99.90
32476;DHT22;18929;48.008;10.882;2023-03-13T03:20:24;8.20;99.90
32476;DHT22;18929;48.008;10.882;2023-03-13T03:22:51;8.20;99.90
32476;DHT22;18929;48.008;10.882;2023-03-13T03:25:17;8.20;99.90
32476;DHT22;18929;48.008;10.882;2023-03-13T03:27:44;8.00;99.90
32476;DHT22;18929;48.008;10.882;2023-03-13T03:30:11;8.10;99.90
32476;DHT22;18929;48.008;10.882;2023-03-13T03:32:39;8.20;99.90
32476;DHT22;18929;48.008;10.882;2023-03-13T03:35:06;8.00;99.90
32476;DHT22;18929;48.008;10.882;2023-03-13T03:37:34;7.50;99.90
32476;DHT22;18929;48.008;10.882;2023-03-13T03:40:01;7.20;99.90
32476;DHT22;18929;48.008;10.882;2023-03-13T03:42:30;7.50;99.90
32476;DHT22;18929;48.008;10.882;2023-03-13T03:44:56;7.70;99.90
32476;DHT22;18929;48.008;10.882;2023-03-13T03:47:23;7.80;99.90
32476;DHT22;18929;48.008;10.882;2023-03-13T03:49:51;7.60;99.90
32476;DHT22;18929;48.008;10.882;2023-03-13T03:52:18;7.50;99.90
32476;DHT22;18929;48.008;10.882;2023-03-13T03:54:45;7.60;99.90
32476;DHT22;18929;48.008;10.882;2023-03-13T03:57:12;8.10;99.90
32476;DHT22;18929;48.008;10.882;2023-03-13T03:59:38;8.40;99.90
32476;DHT22;18929;48.008;10.882;2023-03-13T04:02:05;8.80;99.90
32476;DHT22;18929;48.008;10.882;2023-03-13T04:04:32;8.80;99.90
32476;DHT22;18929;48.008;10.882;2023-03-13T04:07:00;8.60;99.90
32476;DHT22;18929;48.008;10.882;2023-03-13T04:09:27;8.60;99.90
32476;DHT22;18929;48.008;10.882;2023-03-13T04:11:54;8.60;99.90
32476;DHT22;18929;48.008;10.882;2023-03-13T04:14:21;8.80;99.90
32476;DHT22;18929;48.008;10.882;2023-03-13T04:16:48;9.00;99.90
32476;DHT22;18929;48.008;10.882;2023-03-13T04:19:14;8.60;99.90
32476;DHT22;18929;48.008;10.882;2023-03-13T04:21:41;8.40;99.90
32476;DHT22;18929;48.008;10.882;2023-03-13T04:24:10;8.50;99.90
32476;DHT22;18929;48.008;10.882;2023-03-13T04:26:36;8.30;99.90
32476;DHT22;18929;48.008;10.882;2023-03-13T04:29:03;8.10;99.90
32476;DHT22;18929;48.008;10.882;2023-03-13T04:31:30;8.30;99.90
32476;DHT22;18929;48.008;10.882;2023-03-13T04:33:57;8.40;99.90
32476;DHT22;18929;48.008;10.882;2023-03-13T04:36:24;8.40;99.90
32476;DHT22;18929;48.008;10.882;2023-03-13T04:38:51;8.10;99.90
32476;DHT22;18929;48.008;10.882;2023-03-13T04:41:19;8.20;99.90
32476;DHT22;18929;48.008;10.882;2023-03-13T04:43:46;8.60;99.90
32476;DHT22;18929;48.008;10.882;2023-03-13T04:46:13;8.70;99.90
32476;DHT22;18929;48.008;10.882;2023-03-13T04:48:39;8.90;99.90
32476;DHT22;18929;48.008;10.882;2023-03-13T04:51:06;8.80;99.90
32476;DHT22;18929;48.008;10.882;2023-03-13T04:53:33;8.90;99.90
32476;DHT22;18929;48.008;10.882;2023-03-13T04:56:00;8.80;99.90
32476;DHT22;18929;48.008;10.882;2023-03-13T04:58:28;8.90;99.90
32476;DHT22;18929;48.008;10.882;2023-03-13T05:00:55;8.70;99.90
32476;DHT22;18929;48.008;10.882;2023-03-13T05:03:22;8.70;99.90
32476;DHT22;18929;48.008;10.882;2023-03-13T05:05:48;8.40;99.90
32476;DHT22;18929;48.008;10.882;2023-03-13T05:08:15;8.80;99.90
32476;DHT22;18929;48.008;10.882;2023-03-13T05:10:42;9.00;99.90
32476;DHT22;18929;48.008;10.882;2023-03-13T05:13:09;9.10;99.90
32476;DHT22;18929;48.008;10.882;2023-03-13T05:15:37;8.90;99.90
32476;DHT22;18929;48.008;10.882;2023-03-13T05:18:04;9.10;99.90
32476;DHT22;18929;48.008;10.882;2023-03-13T05:20:31;9.20;99.90
32476;DHT22;18929;48.008;10.882;2023-03-13T05:22:57;9.20;99.90
32476;DHT22;18929;48.008;10.882;2023-03-13T05:25:24;8.80;99.90
32476;DHT22;18929;48.008;10.882;2023-03-13T05:27:51;8.90;99.90
32476;DHT22;18929;48.008;10.882;2023-03-13T05:33:14;9.30;99.90
32476;DHT22;18929;48.008;10.882;2023-03-13T05:35:41;9.00;99.90
32476;DHT22;18929;48.008;10.882;2023-03-13T05:38:08;9.20;99.90
32476;DHT22;18929;48.008;10.882;2023-03-13T05:40:34;8.80;99.90
32476;DHT22;18929;48.008;10.882;2023-03-13T05:43:01;9.30;99.90
32476;DHT22;18929;48.008;10.882;2023-03-13T05:45:28;8.90;99.90
32476;DHT22;18929;48.008;10.882;2023-03-13T05:47:55;8.50;99.90
32476;DHT22;18929;48.008;10.882;2023-03-13T05:50:24;8.10;99.90
32476;DHT22;18929;48.008;10.882;2023-03-13T05:52:51;8.60;99.90
32476;DHT22;18929;48.008;10.882;2023-03-13T05:55:18;9.20;99.90
32476;DHT22;18929;48.008;10.882;2023-03-13T05:57:45;8.90;99.90
32476;DHT22;18929;48.008;10.882;2023-03-13T06:00:13;8.70;99.90
32476;DHT22;18929;48.008;10.882;2023-03-13T06:02:40;8.50;99.90
32476;DHT22;18929;48.008;10.882;2023-03-13T06:05:07;8.60;99.90
32476;DHT22;18929;48.008;10.882;2023-03-13T06:07:35;8.30;99.90
32476;DHT22;18929;48.008;10.882;2023-03-13T06:10:02;8.80;99.90
32476;DHT22;18929;48.008;10.882;2023-03-13T06:12:29;8.20;99.90
32476;DHT22;18929;48.008;10.882;2023-03-13T06:14:55;8.00;99.90
32476;DHT22;18929;48.008;10.882;2023-03-13T06:17:22;7.70;99.90
32476;DHT22;18929;48.008;10.882;2023-03-13T06:19:49;8.20;99.90
32476;DHT22;18929;48.008;10.882;2023-03-13T06:22:16;9.00;99.90
32476;DHT22;18929;48.008;10.882;2023-03-13T06:24:45;8.60;99.90
32476;DHT22;18929;48.008;10.882;2023-03-13T06:27:14;8.70;99.90
32476;DHT22;18929;48.008;10.882;2023-03-13T06:29:40;8.80;99.90
32476;DHT22;18929;48.008;10.882;2023-03-13T06:32:07;8.50;99.90
32476;DHT22;18929;48.008;10.882;2023-03-13T06:34:34;7.90;99.90
32476;DHT22;18929;48.008;10.882;2023-03-13T06:37:02;7.70;99.90
32476;DHT22;18929;48.008;10.882;2023-03-13T06:39:29;7.80;99.90
32476;DHT22;18929;48.008;10.882;2023-03-13T06:41:57;7.80;99.90
32476;DHT22;18929;48.008;10.882;2023-03-13T06:44:24;8.20;99.90
32476;DHT22;18929;48.008;10.882;2023-03-13T06:46:51;9.10;99.90
32476;DHT22;18929;48.008;10.882;2023-03-13T06:49:18;8.80;99.90
32476;DHT22;18929;48.008;10.882;2023-03-13T06:51:45;9.50;99.90
32476;DHT22;18929;48.008;10.882;2023-03-13T06:54:11;9.90;99.90
32476;DHT22;18929;48.008;10.882;2023-03-13T06:56:38;8.90;99.90
32476;DHT22;18929;48.008;10.882;2023-03-13T06:59:06;8.90;99.90
32476;DHT22;18929;48.008;10.882;2023-03-13T07:01:33;8.90;99.90
32476;DHT22;18929;48.008;10.882;2023-03-13T07:04:00;8.80;99.90
32476;DHT22;18929;48.008;10.882;2023-03-13T07:06:27;9.00;99.90
32476;DHT22;18929;48.008;10.882;2023-03-13T07:08:54;9.30;99.90
32476;DHT22;18929;48.008;10.882;2023-03-13T07:11:20;9.00;99.90
32476;DHT22;18929;48.008;10.882;2023-03-13T07:13:47;9.50;99.90
32476;DHT22;18929;48.008;10.882;2023-03-13T07:16:15;9.50;99.90
32476;DHT22;18929;48.008;10.882;2023-03-13T07:18:42;9.40;99.90
32476;DHT22;18929;48.008;10.882;2023-03-13T07:21:17;9.30;99.90
32476;DHT22;18929;48.008;10.882;2023-03-13T07:23:44;10.40;99.90
32476;DHT22;18929;48.008;10.882;2023-03-13T07:26:11;10.00;99.90
32476;DHT22;18929;48.008;10.882;2023-03-13T07:28:38;9.70;99.90
32476;DHT22;18929;48.008;10.882;2023-03-13T07:31:06;9.80;99.90
32476;DHT22;18929;48.008;10.882;2023-03-13T07:33:34;10.30;99.90
32476;DHT22;18929;48.008;10.882;2023-03-13T07:36:01;10.30;99.90
32476;DHT22;18929;48.008;10.882;2023-03-13T07:38:28;9.90;99.90
32476;DHT22;18929;48.008;10.882;2023-03-13T07:40:55;9.90;99.90
32476;DHT22;18929;48.008;10.882;2023-03-13T07:43:22;9.40;99.90
32476;DHT22;18929;48.008;10.882;2023-03-13T07:45:50;9.00;99.90
32476;DHT22;18929;48.008;10.882;2023-03-13T07:48:17;9.40;99.90
32476;DHT22;18929;48.008;10.882;2023-03-13T07:50:45;10.30;99.90
32476;DHT22;18929;48.008;10.882;2023-03-13T07:53:12;9.90;99.90
32476;DHT22;18929;48.008;10.882;2023-03-13T07:55:55;9.80;99.90
32476;DHT22;18929;48.008;10.882;2023-03-13T07:58:22;9.00;99.90
32476;DHT22;18929;48.008;10.882;2023-03-13T08:00:49;9.30;99.90
32476;DHT22;18929;48.008;10.882;2023-03-13T08:03:16;9.80;99.90
32476;DHT22;18929;48.008;10.882;2023-03-13T08:05:43;9.60;99.90
32476;DHT22;18929;48.008;10.882;2023-03-13T08:08:11;9.70;99.90
32476;DHT22;18929;48.008;10.882;2023-03-13T08:10:38;9.40;99.90
32476;DHT22;18929;48.008;10.882;2023-03-13T08:13:05;9.30;99.90
32476;DHT22;18929;48.008;10.882;2023-03-13T08:15:31;9.20;99.90
32476;DHT22;18929;48.008;10.882;2023-03-13T08:17:58;8.80;99.90
32476;DHT22;18929;48.008;10.882;2023-03-13T08:20:25;8.80;99.90
32476;DHT22;18929;48.008;10.882;2023-03-13T08:22:53;9.00;99.90
32476;DHT22;18929;48.008;10.882;2023-03-13T08:25:21;9.60;99.90
32476;DHT22;18929;48.008;10.882;2023-03-13T08:27:48;9.70;99.90
32476;DHT22;18929;48.008;10.882;2023-03-13T08:30:15;9.70;99.90
32476;DHT22;18929;48.008;10.882;2023-03-13T08:32:42;10.30;99.90
32476;DHT22;18929;48.008;10.882;2023-03-13T08:35:08;10.20;99.90
32476;DHT22;18929;48.008;10.882;2023-03-13T08:37:35;10.00;99.90
32476;DHT22;18929;48.008;10.882;2023-03-13T08:40:02;9.90;99.90
32476;DHT22;18929;48.008;10.882;2023-03-13T08:42:36;9.80;99.90
32476;DHT22;18929;48.008;10.882;2023-03-13T08:45:03;10.20;99.90
32476;DHT22;18929;48.008;10.882;2023-03-13T08:47:30;10.20;99.90
32476;DHT22;18929;48.008;10.882;2023-03-13T08:49:57;9.90;99.90
32476;DHT22;18929;48.008;10.882;2023-03-13T08:52:24;10.50;99.90
32476;DHT22;18929;48.008;10.882;2023-03-13T08:54:52;10.60;99.90
32476;DHT22;18929;48.008;10.882;2023-03-13T08:57:18;10.20;99.90
32476;DHT22;18929;48.008;10.882;2023-03-13T08:59:46;10.00;99.90
32476;DHT22;18929;48.008;10.882;2023-03-13T09:02:14;10.50;99.90
32476;DHT22;18929;48.008;10.882;2023-03-13T09:04:45;10.10;99.90
32476;DHT22;18929;48.008;10.882;2023-03-13T09:07:12;10.70;99.90
32476;DHT22;18929;48.008;10.882;2023-03-13T09:09:39;10.10;99.90
32476;DHT22;18929;48.008;10.882;2023-03-13T09:12:06;10.20;99.90
32476;DHT22;18929;48.008;10.882;2023-03-13T09:14:33;10.30;99.90
32476;DHT22;18929;48.008;10.882;2023-03-13T09:17:02;10.40;99.90
32476;DHT22;18929;48.008;10.882;2023-03-13T09:19:29;10.60;99.90
32476;DHT22;18929;48.008;10.882;2023-03-13T09:21:55;10.10;99.90
32476;DHT22;18929;48.008;10.882;2023-03-13T09:24:22;10.10;99.90
32476;DHT22;18929;48.008;10.882;2023-03-13T09:26:49;10.10;99.90
32476;DHT22;18929;48.008;10.882;2023-03-13T09:29:16;9.90;99.90
32476;DHT22;18929;48.008;10.882;2023-03-13T09:31:42;10.20;99.90
32476;DHT22;18929;48.008;10.882;2023-03-13T09:34:11;10.50;99.90
32476;DHT22;18929;48.008;10.882;2023-03-13T09:36:37;10.80;99.90
32476;DHT22;18929;48.008;10.882;2023-03-13T09:39:05;11.10;99.90
32476;DHT22;18929;48.008;10.882;2023-03-13T09:41:33;12.20;99.90
32476;DHT22;18929;48.008;10.882;2023-03-13T09:44:01;11.00;99.90
32476;DHT22;18929;48.008;10.882;2023-03-13T09:46:31;11.80;99.90
32476;DHT22;18929;48.008;10.882;2023-03-13T09:48:59;12.50;99.90
32476;DHT22;18929;48.008;10.882;2023-03-13T09:51:28;11.30;99.90
32476;DHT22;18929;48.008;10.882;2023-03-13T09:53:57;11.60;99.90
32476;DHT22;18929;48.008;10.882;2023-03-13T09:56:27;12.60;99.90
32476;DHT22;18929;48.008;10.882;2023-03-13T09:58:58;12.20;99.90
32476;DHT22;18929;48.008;10.882;2023-03-13T10:01:27;12.30;99.90
32476;DHT22;18929;48.008;10.882;2023-03-13T10:03:57;12.00;99.90
32476;DHT22;18929;48.008;10.882;2023-03-13T10:06:29;11.80;99.90
32476;DHT22;18929;48.008;10.882;2023-03-13T10:08:58;12.20;99.90
32476;DHT22;18929;48.008;10.882;2023-03-13T10:11:26;11.90;99.90
32476;DHT22;18929;48.008;10.882;2023-03-13T10:13:56;11.70;99.90
32476;DHT22;18929;48.008;10.882;2023-03-13T10:16:25;11.90;99.90
32476;DHT22;18929;48.008;10.882;2023-03-13T10:18:53;11.70;99.90
32476;DHT22;18929;48.008;10.882;2023-03-13T10:21:22;11.20;99.90
32476;DHT22;18929;48.008;10.882;2023-03-13T10:23:50;11.20;99.90
32476;DHT22;18929;48.008;10.882;2023-03-13T10:26:20;11.40;99.90
32476;DHT22;18929;48.008;10.882;2023-03-13T10:28:49;11.60;99.90
32476;DHT22;18929;48.008;10.882;2023-03-13T10:31:18;11.30;99.90
32476;DHT22;18929;48.008;10.882;2023-03-13T10:33:47;11.70;99.90
32476;DHT22;18929;48.008;10.882;2023-03-13T10:36:14;12.40;99.90
32476;DHT22;18929;48.008;10.882;2023-03-13T10:38:45;12.40;99.90
32476;DHT22;18929;48.008;10.882;2023-03-13T10:44:02;11.30;99.90
32476;DHT22;18929;48.008;10.882;2023-03-13T10:46:30;12.80;99.90
32476;DHT22;18929;48.008;10.882;2023-03-13T10:48:59;12.00;99.90
32476;DHT22;18929;48.008;10.882;2023-03-13T10:51:29;12.20;99.90
32476;DHT22;18929;48.008;10.882;2023-03-13T10:54:00;11.90;99.90
32476;DHT22;18929;48.008;10.882;2023-03-13T10:56:27;12.60;99.90
32476;DHT22;18929;48.008;10.882;2023-03-13T10:58:55;11.90;99.90
32476;DHT22;18929;48.008;10.882;2023-03-13T11:01:24;12.90;99.90
32476;DHT22;18929;48.008;10.882;2023-03-13T11:03:53;12.70;99.90
32476;DHT22;18929;48.008;10.882;2023-03-13T11:06:22;12.90;99.90
32476;DHT22;18929;48.008;10.882;2023-03-13T11:08:49;12.90;99.90
32476;DHT22;18929;48.008;10.882;2023-03-13T11:11:16;12.40;99.90
32476;DHT22;18929;48.008;10.882;2023-03-13T11:13:43;13.20;99.90
32476;DHT22;18929;48.008;10.882;2023-03-13T11:16:14;13.90;99.90
32476;DHT22;18929;48.008;10.882;2023-03-13T11:18:47;12.70;99.90
32476;DHT22;18929;48.008;10.882;2023-03-13T11:21:17;12.40;99.90
32476;DHT22;18929;48.008;10.882;2023-03-13T11:23:46;12.80;99.90
32476;DHT22;18929;48.008;10.882;2023-03-13T11:26:15;12.60;99.90
32476;DHT22;18929;48.008;10.882;2023-03-13T11:28:47;12.20;99.90
32476;DHT22;18929;48.008;10.882;2023-03-13T11:31:17;12.90;99.90
32476;DHT22;18929;48.008;10.882;2023-03-13T11:33:51;13.60;99.90
32476;DHT22;18929;48.008;10.882;2023-03-13T11:36:22;14.00;99.90
32476;DHT22;18929;48.008;10.882;2023-03-13T11:38:54;14.00;99.90
32476;DHT22;18929;48.008;10.882;2023-03-13T11:41:29;13.60;99.90
32476;DHT22;18929;48.008;10.882;2023-03-13T11:44:02;13.70;99.90
32476;DHT22;18929;48.008;10.882;2023-03-13T11:46:32;14.10;99.90
32476;DHT22;18929;48.008;10.882;2023-03-13T11:49:22;13.70;99.90
32476;DHT22;18929;48.008;10.882;2023-03-13T11:51:57;13.40;99.90
32476;DHT22;18929;48.008;10.882;2023-03-13T11:54:35;13.30;99.90
32476;DHT22;18929;48.008;10.882;2023-03-13T11:57:07;13.20;99.90
32476;DHT22;18929;48.008;10.882;2023-03-13T11:59:39;12.90;99.90
32476;DHT22;18929;48.008;10.882;2023-03-13T12:02:13;13.20;99.90
32476;DHT22;18929;48.008;10.882;2023-03-13T12:04:42;13.50;99.90
32476;DHT22;18929;48.008;10.882;2023-03-13T12:07:14;13.30;99.90
32476;DHT22;18929;48.008;10.882;2023-03-13T12:09:44;13.50;99.90
32476;DHT22;18929;48.008;10.882;2023-03-13T12:12:14;13.90;99.90
32476;DHT22;18929;48.008;10.882;2023-03-13T12:14:43;13.40;99.90
32476;DHT22;18929;48.008;10.882;2023-03-13T12:17:10;13.90;99.90
32476;DHT22;18929;48.008;10.882;2023-03-13T12:19:42;13.50;99.90
32476;DHT22;18929;48.008;10.882;2023-03-13T12:22:12;14.00;99.90
32476;DHT22;18929;48.008;10.882;2023-03-13T12:24:41;14.10;99.90
32476;DHT22;18929;48.008;10.882;2023-03-13T12:27:10;13.90;99.90
32476;DHT22;18929;48.008;10.882;2023-03-13T12:29:41;14.80;99.90
32476;DHT22;18929;48.008;10.882;2023-03-13T12:32:11;14.60;99.90
32476;DHT22;18929;48.008;10.882;2023-03-13T12:34:45;14.20;99.90
32476;DHT22;18929;48.008;10.882;2023-03-13T12:37:17;14.30;99.90
32476;DHT22;18929;48.008;10.882;2023-03-13T12:39:47;15.00;99.90
32476;DHT22;18929;48.008;10.882;2023-03-13T12:42:22;15.40;99.90
32476;DHT22;18929;48.008;10.882;2023-03-13T12:44:50;14.80;99.90
32476;DHT22;18929;48.008;10.882;2023-03-13T12:47:18;14.80;99.90
32476;DHT22;18929;48.008;10.882;2023-03-13T12:52:42;14.60;99.90
32476;DHT22;18929;48.008;10.882;2023-03-13T13:00:46;14.50;99.90
32476;DHT22;18929;48.008;10.882;2023-03-13T13:03:19;14.30;99.90
32476;DHT22;18929;48.008;10.882;2023-03-13T13:05:57;14.20;99.90
32476;DHT22;18929;48.008;10.882;2023-03-13T13:08:26;14.40;99.90
32476;DHT22;18929;48.008;10.882;2023-03-13T13:10:52;14.80;99.90
32476;DHT22;18929;48.008;10.882;2023-03-13T13:13:27;14.80;99.90
32476;DHT22;18929;48.008;10.882;2023-03-13T13:15:59;14.60;99.90
32476;DHT22;18929;48.008;10.882;2023-03-13T13:18:27;14.80;99.90
32476;DHT22;18929;48.008;10.882;2023-03-13T13:23:44;15.00;99.90
32476;DHT22;18929;48.008;10.882;2023-03-13T13:31:58;14.80;99.90
32476;DHT22;18929;48.008;10.882;2023-03-13T13:37:24;15.40;99.90
32476;DHT22;18929;48.008;10.882;2023-03-13T13:40:07;15.20;99.90
32476;DHT22;18929;48.008;10.882;2023-03-13T13:42:45;15.90;99.90
32476;DHT22;18929;48.008;10.882;2023-03-13T13:45:25;15.50;99.90
32476;DHT22;18929;48.008;10.882;2023-03-13T13:50:34;17.60;99.90
32476;DHT22;18929;48.008;10.882;2023-03-13T13:55:44;15.70;99.90
32476;DHT22;18929;48.008;10.882;2023-03-13T13:58:13;16.50;99.90
32476;DHT22;18929;48.008;10.882;2023-03-13T14:00:43;17.30;99.90
32476;DHT22;18929;48.008;10.882;2023-03-13T14:03:15;16.70;99.90
32476;DHT22;18929;48.008;10.882;2023-03-13T14:05:43;16.90;99.90
32476;DHT22;18929;48.008;10.882;2023-03-13T14:08:13;16.50;99.90
32476;DHT22;18929;48.008;10.882;2023-03-13T14:10:44;16.50;99.90
32476;DHT22;18929;48.008;10.882;2023-03-13T14:13:14;16.60;99.90
32476;DHT22;18929;48.008;10.882;2023-03-13T14:15:42;17.00;99.90
32476;DHT22;18929;48.008;10.882;2023-03-13T14:18:10;16.80;99.90
32476;DHT22;18929;48.008;10.882;2023-03-13T14:20:38;16.60;99.90
32476;DHT22;18929;48.008;10.882;2023-03-13T14:23:06;16.90;99.90
32476;DHT22;18929;48.008;10.882;2023-03-13T14:25:40;17.30;99.90
32476;DHT22;18929;48.008;10.882;2023-03-13T14:28:19;17.10;99.90
32476;DHT22;18929;48.008;10.882;2023-03-13T14:30:47;16.70;99.90
32476;DHT22;18929;48.008;10.882;2023-03-13T14:33:14;16.60;99.90
32476;DHT22;18929;48.008;10.882;2023-03-13T14:35:41;16.50;99.90
32476;DHT22;18929;48.008;10.882;2023-03-13T14:38:14;16.40;99.90
32476;DHT22;18929;48.008;10.882;2023-03-13T14:40:41;16.40;99.90
32476;DHT22;18929;48.008;10.882;2023-03-13T14:43:13;16.80;99.90
32476;DHT22;18929;48.008;10.882;2023-03-13T14:45:43;16.60;99.90
32476;DHT22;18929;48.008;10.882;2023-03-13T14:48:13;16.70;99.90
32476;DHT22;18929;48.008;10.882;2023-03-13T14:50:42;16.80;99.90
32476;DHT22;18929;48.008;10.882;2023-03-13T14:53:10;16.60;99.90
32476;DHT22;18929;48.008;10.882;2023-03-13T14:55:37;16.60;99.90
32476;DHT22;18929;48.008;10.882;2023-03-13T14:58:20;16.80;99.90
32476;DHT22;18929;48.008;10.882;2023-03-13T15:00:50;16.90;99.90
32476;DHT22;18929;48.008;10.882;2023-03-13T15:03:22;17.40;99.90
32476;DHT22;18929;48.008;10.882;2023-03-13T15:06:01;17.70;99.90
32476;DHT22;18929;48.008;10.882;2023-03-13T15:08:27;17.20;99.90
32476;DHT22;18929;48.008;10.882;2023-03-13T15:10:55;17.00;99.90
32476;DHT22;18929;48.008;10.882;2023-03-13T15:13:22;17.00;99.90
32476;DHT22;18929;48.008;10.882;2023-03-13T15:15:51;17.20;99.90
32476;DHT22;18929;48.008;10.882;2023-03-13T15:18:19;17.40;99.90
32476;DHT22;18929;48.008;10.882;2023-03-13T15:20:47;17.40;99.90
32476;DHT22;18929;48.008;10.882;2023-03-13T15:23:14;18.10;99.90
32476;DHT22;18929;48.008;10.882;2023-03-13T15:25:41;18.50;99.90
32476;DHT22;18929;48.008;10.882;2023-03-13T15:28:12;18.80;99.90
32476;DHT22;18929;48.008;10.882;2023-03-13T15:30:39;18.90;99.90
32476;DHT22;18929;48.008;10.882;2023-03-13T15:33:13;19.00;99.90
32476;DHT22;18929;48.008;10.882;2023-03-13T15:35:40;19.10;99.90
32476;DHT22;18929;48.008;10.882;2023-03-13T15:38:09;19.10;99.90
32476;DHT22;18929;48.008;10.882;2023-03-13T15:40:37;19.20;99.90
32476;DHT22;18929;48.008;10.882;2023-03-13T15:45:53;19.30;99.90
32476;DHT22;18929;48.008;10.882;2023-03-13T15:48:22;19.40;99.90
32476;DHT22;18929;48.008;10.882;2023-03-13T15:50:49;19.50;99.90
32476;DHT22;18929;48.008;10.882;2023-03-13T15:53:17;19.50;99.90
32476;DHT22;18929;48.008;10.882;2023-03-13T15:55:44;19.40;99.90
32476;DHT22;18929;48.008;10.882;2023-03-13T15:58:11;19.50;99.90
32476;DHT22;18929;48.008;10.882;2023-03-13T16:00:38;19.30;99.90
32476;DHT22;18929;48.008;10.882;2023-03-13T16:03:07;18.60;99.90
32476;DHT22;18929;48.008;10.882;2023-03-13T16:05:36;18.70;99.90